Time,TemperatureF,DewpointF,PressureIn,WindDirection,WindDirectionDegrees,WindSpeedMPH,WindSpeedGustMPH,Humidity,HourlyPrecipIn,Conditions,Clouds,dailyrainin,SolarRadiationWatts/m^2,SoftwareType,DateUTC
2013-04-05 00:02:00,49.0,40.0,-100.00,WSW,241,8.0,13.0,72,-99.99,,,0.00,0.120000,,2013-04-05 06:02:00,
2013-04-05 00:12:00,49.0,40.0,-100.00,WSW,241,8.0,13.0,72,-99.99,,,0.00,0.120000,,2013-04-05 06:12:00,
2013-04-05 01:42:00,43.0,36.0,-100.00,SSW,203,9.0,12.0,76,-99.99,,,0.00,0.120000,,2013-04-05 07:42:00,
2013-04-05 01:52:00,43.0,36.0,-100.00,SSW,203,9.0,12.0,76,-99.99,,,0.00,0.120000,,2013-04-05 07:52:00,
2013-04-05 02:02:00,43.0,36.0,-100.00,SSW,203,9.0,12.0,76,-99.99,,,0.00,0.120000,,2013-04-05 08:02:00,
2013-04-05 02:12:00,43.0,36.0,-100.00,SSW,203,9.0,12.0,76,-99.99,,,0.00,0.120000,,2013-04-05 08:12:00,
2013-04-05 02:42:00,45.0,37.0,-100.00,South,180,6.0,7.0,73,-99.99,,,0.00,0.120000,,2013-04-05 08:42:00,
2013-04-05 02:52:00,45.0,37.0,-100.00,South,180,6.0,7.0,73,-99.99,,,0.00,0.120000,,2013-04-05 08:52:00,
2013-04-05 03:02:00,45.0,37.0,-100.00,South,180,6.0,7.0,73,-99.99,,,0.00,0.120000,,2013-04-05 09:02:00,
2013-04-05 03:12:00,45.0,37.0,-100.00,South,180,6.0,7.0,73,-99.99,,,0.00,0.120000,,2013-04-05 09:12:00,
2013-04-05 03:42:00,45.0,36.0,-100.00,SSE,166,5.0,6.0,71,-99.99,,,0.00,0.120000,,2013-04-05 09:42:00,
2013-04-05 03:53:00,45.0,36.0,-100.00,SSE,166,5.0,6.0,71,-99.99,,,0.00,0.120000,,2013-04-05 09:53:00,
2013-04-05 04:02:00,45.0,36.0,-100.00,SSE,166,5.0,6.0,71,-99.99,,,0.00,0.120000,,2013-04-05 10:02:00,
2013-04-05 04:12:00,45.0,36.0,-100.00,SSE,166,5.0,6.0,71,-99.99,,,0.00,0.120000,,2013-04-05 10:12:00,
2013-04-05 04:42:00,43.0,36.0,-100.00,SW,217,4.0,7.0,75,-99.99,,,0.00,0.120000,,2013-04-05 10:42:00,
2013-04-05 04:53:00,43.0,36.0,-100.00,SW,217,4.0,7.0,75,-99.99,,,0.00,0.120000,,2013-04-05 10:53:00,
2013-04-05 05:02:00,43.0,36.0,-100.00,SW,217,4.0,7.0,75,-99.99,,,0.00,0.120000,,2013-04-05 11:02:00,
2013-04-05 05:12:00,43.0,36.0,-100.00,SW,217,4.0,7.0,75,-99.99,,,0.00,0.120000,,2013-04-05 11:12:00,
2013-04-05 05:42:00,45.0,37.0,-100.00,NNW,341,15.0,25.0,73,-99.99,,,0.00,0.120000,,2013-04-05 11:42:00,
2013-04-05 05:52:00,45.0,37.0,-100.00,NNW,341,15.0,25.0,73,-99.99,,,0.00,0.120000,,2013-04-05 11:52:00,
2013-04-05 06:02:00,45.0,37.0,-100.00,NNW,341,15.0,25.0,73,-99.99,,,0.00,0.120000,,2013-04-05 12:02:00,
2013-04-05 06:12:00,45.0,37.0,-100.00,NNW,341,15.0,25.0,73,-99.99,,,0.00,0.120000,,2013-04-05 12:12:00,
2013-04-05 07:42:00,38.0,34.0,-100.00,NNE,15,3.0,7.0,83,-99.99,,,0.00,2.790000,,2013-04-05 13:42:00,
2013-04-05 07:52:00,38.0,34.0,-100.00,NNE,15,3.0,7.0,83,-99.99,,,0.00,2.790000,,2013-04-05 13:52:00,
2013-04-05 08:02:00,38.0,34.0,-100.00,NNE,15,3.0,7.0,83,-99.99,,,0.00,2.790000,,2013-04-05 14:02:00,
2013-04-05 08:12:00,38.0,34.0,-100.00,NNE,15,3.0,7.0,83,-99.99,,,0.00,2.790000,,2013-04-05 14:12:00,
2013-04-05 08:42:00,39.0,35.0,-100.00,NE,37,4.0,6.0,83,-99.99,,,0.00,129.820007,,2013-04-05 14:42:00,
2013-04-05 08:53:00,39.0,35.0,-100.00,NE,37,4.0,6.0,83,-99.99,,,0.00,129.820007,,2013-04-05 14:53:00,
2013-04-05 09:02:00,39.0,35.0,-100.00,NE,37,4.0,6.0,83,-99.99,,,0.00,129.820007,,2013-04-05 15:02:00,
2013-04-05 09:12:00,39.0,35.0,-100.00,NE,37,4.0,6.0,83,-99.99,,,0.00,129.820007,,2013-04-05 15:12:00,
2013-04-05 09:42:00,42.0,35.0,-100.00,ENE,62,3.0,4.0,74,-99.99,,,0.00,179.789993,,2013-04-05 15:42:00,
2013-04-05 09:53:00,42.0,35.0,-100.00,ENE,62,3.0,4.0,74,-99.99,,,0.00,179.789993,,2013-04-05 15:53:00,
2013-04-05 10:02:00,42.0,35.0,-100.00,ENE,62,3.0,4.0,74,-99.99,,,0.00,179.789993,,2013-04-05 16:02:00,
2013-04-05 10:13:00,42.0,35.0,-100.00,ENE,62,3.0,4.0,74,-99.99,,,0.00,179.789993,,2013-04-05 16:13:00,
2013-04-05 10:42:00,47.0,35.0,-100.00,South,171,7.0,11.0,62,-99.99,,,0.00,414.670013,,2013-04-05 16:42:00,
2013-04-05 10:53:00,47.0,35.0,-100.00,South,171,7.0,11.0,62,-99.99,,,0.00,414.670013,,2013-04-05 16:53:00,
2013-04-05 11:02:00,47.0,35.0,-100.00,South,171,7.0,11.0,62,-99.99,,,0.00,414.670013,,2013-04-05 17:02:00,
2013-04-05 11:12:00,47.0,35.0,-100.00,South,171,7.0,11.0,62,-99.99,,,0.00,414.670013,,2013-04-05 17:12:00,
2013-04-05 11:45:00,49.0,31.0,-100.00,ESE,116,3.0,5.0,50,-99.99,,,0.00,237.320007,,2013-04-05 17:45:00,
2013-04-05 11:52:00,49.0,31.0,-100.00,ESE,116,3.0,5.0,50,-99.99,,,0.00,237.320007,,2013-04-05 17:52:00,
2013-04-05 12:02:00,49.0,31.0,-100.00,ESE,116,3.0,5.0,50,-99.99,,,0.00,237.320007,,2013-04-05 18:02:00,
2013-04-05 12:12:00,49.0,31.0,-100.00,ESE,116,3.0,5.0,50,-99.99,,,0.00,237.320007,,2013-04-05 18:12:00,
2013-04-05 12:42:00,52.0,29.0,-100.00,South,178,8.0,16.0,40,-99.99,,,0.00,679.650024,,2013-04-05 18:42:00,
2013-04-05 12:52:00,52.0,29.0,-100.00,South,178,8.0,16.0,40,-99.99,,,0.00,679.650024,,2013-04-05 18:52:00,
2013-04-05 13:02:00,52.0,29.0,-100.00,South,178,8.0,16.0,40,-99.99,,,0.00,679.650024,,2013-04-05 19:02:00,
2013-04-05 13:12:00,52.0,29.0,-100.00,South,178,8.0,16.0,40,-99.99,,,0.00,679.650024,,2013-04-05 19:12:00,
2013-04-05 13:42:00,51.0,33.0,-100.00,ENE,76,5.0,12.0,50,-99.99,,,-99.99,442.450012,,2013-04-05 19:42:00,
2013-04-05 13:52:00,51.0,33.0,-100.00,ENE,76,5.0,12.0,50,-99.99,,,-99.99,442.450012,,2013-04-05 19:52:00,
2013-04-05 14:02:00,51.0,33.0,-100.00,ENE,76,5.0,12.0,50,-99.99,,,-99.99,442.450012,,2013-04-05 20:02:00,
2013-04-05 14:10:00,51.0,33.0,-100.00,ENE,76,5.0,12.0,50,-99.99,,,-99.99,442.450012,,2013-04-05 20:10:00,
2013-04-05 14:32:00,56.0,27.0,-100.00,West,271,8.0,27.0,32,-99.99,,,0.00,999.489990,,2013-04-05 20:32:00,
2013-04-05 14:42:00,56.0,27.0,-100.00,West,271,8.0,27.0,32,-99.99,,,0.00,999.489990,,2013-04-05 20:42:00,
2013-04-05 14:52:00,56.0,27.0,-100.00,West,271,8.0,27.0,32,-99.99,,,0.00,999.489990,,2013-04-05 20:52:00,
2013-04-05 15:02:00,56.0,27.0,-100.00,West,271,8.0,27.0,32,-99.99,,,0.00,999.489990,,2013-04-05 21:02:00,
2013-04-05 15:12:00,56.0,27.0,-100.00,West,271,8.0,27.0,32,-99.99,,,0.00,999.489990,,2013-04-05 21:12:00,
2013-04-05 15:42:00,57.0,24.0,-100.00,WSW,252,13.0,23.0,27,-99.99,,,0.00,676.520020,,2013-04-05 21:42:00,
2013-04-05 15:54:00,57.0,24.0,-100.00,WSW,252,13.0,23.0,27,-99.99,,,0.00,676.520020,,2013-04-05 21:54:00,
2013-04-05 16:03:00,57.0,24.0,-100.00,WSW,252,13.0,23.0,27,-99.99,,,0.00,676.520020,,2013-04-05 22:03:00,
2013-04-05 16:12:00,57.0,24.0,-100.00,WSW,252,13.0,23.0,27,-99.99,,,0.00,676.520020,,2013-04-05 22:12:00,
2013-04-05 16:42:00,57.0,21.0,-100.00,West,264,17.0,28.0,25,-99.99,,,0.00,658.849976,,2013-04-05 22:42:00,
2013-04-05 16:53:00,57.0,21.0,-100.00,West,264,17.0,28.0,25,-99.99,,,0.00,658.849976,,2013-04-05 22:53:00,
2013-04-05 17:02:00,57.0,21.0,-100.00,West,264,17.0,28.0,25,-99.99,,,0.00,658.849976,,2013-04-05 23:02:00,
2013-04-05 17:12:00,57.0,21.0,-100.00,West,264,17.0,28.0,25,-99.99,,,0.00,658.849976,,2013-04-05 23:12:00,
2013-04-05 17:42:00,56.0,22.0,-100.00,WNW,285,11.0,20.0,26,-99.99,,,0.00,303.220001,,2013-04-05 23:42:00,
2013-04-05 17:52:00,56.0,22.0,-100.00,WNW,285,11.0,20.0,26,-99.99,,,0.00,303.220001,,2013-04-05 23:52:00,
2013-04-05 18:02:00,56.0,22.0,-100.00,WNW,285,11.0,20.0,26,-99.99,,,0.00,303.220001,,2013-04-06 00:02:00,
2013-04-05 18:12:00,56.0,22.0,-100.00,WNW,285,11.0,20.0,26,-99.99,,,0.00,303.220001,,2013-04-06 00:12:00,
2013-04-05 19:42:00,50.0,28.0,-100.00,WSW,245,11.0,19.0,42,-99.99,,,0.00,93.790001,,2013-04-06 01:42:00,
2013-04-05 19:53:00,50.0,28.0,-100.00,WSW,245,11.0,19.0,42,-99.99,,,0.00,93.790001,,2013-04-06 01:53:00,
2013-04-05 20:02:00,50.0,28.0,-100.00,WSW,245,11.0,19.0,42,-99.99,,,0.00,93.790001,,2013-04-06 02:02:00,
2013-04-05 20:12:00,50.0,28.0,-100.00,WSW,245,11.0,19.0,42,-99.99,,,0.00,93.790001,,2013-04-06 02:12:00,
2013-04-05 20:42:00,46.0,29.0,-100.00,WSW,239,8.0,12.0,49,-99.99,,,0.00,2.910000,,2013-04-06 02:42:00,
2013-04-05 20:52:00,46.0,29.0,-100.00,WSW,239,8.0,12.0,49,-99.99,,,0.00,2.910000,,2013-04-06 02:52:00,
2013-04-05 21:02:00,46.0,29.0,-100.00,WSW,239,8.0,12.0,49,-99.99,,,0.00,2.910000,,2013-04-06 03:02:00,
2013-04-05 21:12:00,46.0,29.0,-100.00,WSW,239,8.0,12.0,49,-99.99,,,0.00,2.910000,,2013-04-06 03:12:00,
2013-04-05 21:42:00,45.0,27.0,-100.00,WSW,255,7.0,11.0,48,-99.99,,,0.00,0.120000,,2013-04-06 03:42:00,
2013-04-05 21:54:00,45.0,27.0,-100.00,WSW,255,7.0,11.0,48,-99.99,,,0.00,0.120000,,2013-04-06 03:54:00,
2013-04-05 22:03:00,45.0,27.0,-100.00,WSW,255,7.0,11.0,48,-99.99,,,0.00,0.120000,,2013-04-06 04:03:00,
2013-04-05 22:13:00,45.0,27.0,-100.00,WSW,255,7.0,11.0,48,-99.99,,,0.00,0.120000,,2013-04-06 04:13:00,
2013-04-05 22:42:00,44.0,29.0,-100.00,SW,217,8.0,12.0,53,-99.99,,,0.00,0.120000,,2013-04-06 04:42:00,
2013-04-05 22:53:00,44.0,29.0,-100.00,SW,217,8.0,12.0,53,-99.99,,,0.00,0.120000,,2013-04-06 04:53:00,
2013-04-05 23:02:00,44.0,29.0,-100.00,SW,217,8.0,12.0,53,-99.99,,,0.00,0.120000,,2013-04-06 05:02:00,
2013-04-05 23:12:00,44.0,29.0,-100.00,SW,217,8.0,12.0,53,-99.99,,,0.00,0.120000,,2013-04-06 05:12:00,
2013-04-05 23:42:00,44.0,28.0,-100.00,SW,217,12.0,17.0,53,-99.99,,,0.00,0.120000,,2013-04-06 05:42:00,
2013-04-05 23:52:00,44.0,28.0,-100.00,SW,217,12.0,17.0,53,-99.99,,,0.00,0.120000,,2013-04-06 05:52:00,